Time;durP1;ratioP1;P1;durP2;ratioP2;P2;SDS_P1;SDS_P2;PMS_P1;PMS_P2;Temp;Humidity;BMP_temperature;BMP_pressure;BME280_temperature;BME280_humidity;BME280_pressure;Samples;Min_cycle;Max_cycle;Signal;HPM_P1;HPM_P2
2022/10/05 00:00:13;;;;;;;8.07;5.73;;;11.90;99.90;;;;;;5093312;28;20230;-53
2022/10/05 00:02:39;;;;;;;8.23;6.00;;;11.90;99.90;;;;;;5093528;28;20257;-57
2022/10/05 00:05:19;;;;;;;8.03;4.90;;;11.90;99.90;;;;;;5093518;28;20208;-57
2022/10/05 00:07:45;;;;;;;10.23;5.60;;;11.90;99.90;;;;;;5093084;28;20280;-57
2022/10/05 00:10:16;;;;;;;8.00;5.60;;;11.90;99.90;;;;;;5092506;28;20222;-56
2022/10/05 00:12:44;;;;;;;10.77;5.97;;;11.90;99.90;;;;;;5093231;28;20219;-55
2022/10/05 00:15:15;;;;;;;7.83;5.57;;;11.90;99.90;;;;;;5093154;28;20208;-57
2022/10/05 00:17:42;;;;;;;9.83;5.53;;;11.90;99.90;;;;;;5092571;28;20714;-56
2022/10/05 00:20:18;;;;;;;8.87;5.20;;;11.90;99.90;;;;;;5093109;28;20681;-56
2022/10/05 00:22:44;;;;;;;9.50;5.43;;;12.00;99.90;;;;;;5093126;28;20212;-56
2022/10/05 00:25:14;;;;;;;8.03;5.03;;;12.00;99.90;;;;;;5092674;28;20208;-57
2022/10/05 00:27:41;;;;;;;8.30;6.23;;;12.00;99.90;;;;;;5092742;28;20274;-57
2022/10/05 00:30:15;;;;;;;9.03;5.67;;;12.00;99.90;;;;;;5092730;28;20710;-57
2022/10/05 00:32:42;;;;;;;9.40;5.40;;;12.10;99.90;;;;;;5092714;28;20250;-55
2022/10/05 00:35:09;;;;;;;8.20;5.60;;;12.10;99.90;;;;;;5092885;28;20249;-57
2022/10/05 00:37:37;;;;;;;9.47;5.80;;;12.10;99.90;;;;;;5092506;28;20231;-56
2022/10/05 00:40:09;;;;;;;12.20;5.93;;;12.10;99.90;;;;;;5092816;28;20206;-55
2022/10/05 00:42:45;;;;;;;10.77;5.87;;;12.10;99.90;;;;;;5092902;28;20255;-54
2022/10/05 00:45:16;;;;;;;10.47;5.40;;;12.10;99.90;;;;;;5092732;28;20615;-56
2022/10/05 00:47:54;;;;;;;10.00;6.27;;;12.20;99.90;;;;;;5092369;28;20224;-57
2022/10/05 00:50:47;;;;;;;11.77;5.83;;;12.20;99.90;;;;;;5092572;28;20227;-57
2022/10/05 00:53:29;;;;;;;8.47;5.73;;;12.20;99.90;;;;;;5092744;28;20225;-56
2022/10/05 00:56:02;;;;;;;8.07;6.47;;;12.20;99.90;;;;;;5092467;28;20677;-57
2022/10/05 00:58:41;;;;;;;11.47;6.13;;;12.20;99.90;;;;;;5092199;28;20277;-57
2022/10/05 01:01:12;;;;;;;9.70;5.93;;;12.10;99.90;;;;;;5092697;28;20223;-57
2022/10/05 01:03:50;;;;;;;13.60;6.13;;;12.20;99.90;;;;;;5092488;28;20208;-57
2022/10/05 01:06:23;;;;;;;10.20;6.40;;;12.10;99.90;;;;;;5092186;28;20252;-57
2022/10/05 01:08:59;;;;;;;12.53;6.93;;;12.20;99.90;;;;;;5091993;28;20301;-57
2022/10/05 01:11:30;;;;;;;11.90;6.77;;;12.20;99.90;;;;;;5092562;28;20202;-57
2022/10/05 01:14:02;;;;;;;10.63;6.00;;;12.20;99.90;;;;;;5092309;28;20263;-56
2022/10/05 01:16:39;;;;;;;8.40;5.63;;;12.20;99.90;;;;;;5091909;28;20253;-57
2022/10/05 01:19:19;;;;;;;9.83;6.30;;;12.20;99.90;;;;;;5091991;28;20798;-57
2022/10/05 01:21:53;;;;;;;11.23;6.37;;;12.10;99.90;;;;;;5092227;28;20554;-57
2022/10/05 01:24:41;;;;;;;12.93;6.30;;;12.10;99.90;;;;;;5092162;28;20256;-57
2022/10/05 01:27:21;;;;;;;10.10;6.37;;;12.10;99.90;;;;;;5091668;28;20658;-57
2022/10/05 01:29:57;;;;;;;14.33;6.53;;;12.10;99.90;;;;;;5091792;28;20232;-55
2022/10/05 01:32:31;;;;;;;14.57;7.13;;;12.10;99.90;;;;;;5092283;28;20277;-56
2022/10/05 01:35:06;;;;;;;11.27;6.63;;;12.10;99.90;;;;;;5091996;28;20667;-56
2022/10/05 01:37:41;;;;;;;9.17;6.03;;;12.20;99.90;;;;;;5091779;28;20223;-57
2022/10/05 01:40:17;;;;;;;8.93;6.80;;;12.20;99.90;;;;;;5091840;28;20224;-57
2022/10/05 01:42:56;;;;;;;8.40;6.13;;;12.20;99.90;;;;;;5091944;28;20694;-57
2022/10/05 01:45:32;;;;;;;9.97;6.27;;;12.20;99.90;;;;;;5091954;28;20211;-56
2022/10/05 01:48:08;;;;;;;10.63;5.87;;;12.20;99.90;;;;;;5091748;28;20246;-57
2022/10/05 01:50:47;;;;;;;7.90;6.33;;;12.20;99.90;;;;;;5092123;28;20313;-57
2022/10/05 01:53:24;;;;;;;9.97;6.27;;;12.20;99.90;;;;;;5091925;28;20256;-57
2022/10/05 01:56:01;;;;;;;10.20;6.07;;;12.20;99.90;;;;;;5091978;28;20257;-56
2022/10/05 01:58:35;;;;;;;9.23;6.53;;;12.20;99.90;;;;;;5091733;28;20223;-52
2022/10/05 02:01:12;;;;;;;10.17;6.60;;;12.20;99.90;;;;;;5091870;28;20244;-56
2022/10/05 02:03:45;;;;;;;11.70;6.43;;;12.20;99.90;;;;;;5092264;28;20211;-57
2022/10/05 02:06:17;;;;;;;10.93;6.20;;;12.20;99.90;;;;;;5091933;28;20231;-57
2022/10/05 02:08:47;;;;;;;10.23;6.53;;;12.20;99.90;;;;;;5091806;28;20231;-56
2022/10/05 02:11:14;;;;;;;8.53;5.87;;;12.20;99.90;;;;;;5091528;28;20274;-57
2022/10/05 02:13:45;;;;;;;9.00;6.40;;;12.20;99.90;;;;;;5091835;28;20808;-57
2022/10/05 02:16:17;;;;;;;9.87;6.40;;;12.20;99.90;;;;;;5091426;28;20210;-58
2022/10/05 02:18:50;;;;;;;12.07;6.80;;;12.20;99.90;;;;;;5091643;28;20235;-57
2022/10/05 02:21:18;;;;;;;9.57;6.40;;;12.20;99.90;;;;;;5091627;28;20206;-57
2022/10/05 02:23:46;;;;;;;9.27;5.93;;;12.20;99.90;;;;;;5091427;28;20227;-56
2022/10/05 02:26:13;;;;;;;10.07;6.50;;;12.20;99.90;;;;;;5091096;28;20221;-57
2022/10/05 02:28:45;;;;;;;11.43;6.03;;;12.30;99.90;;;;;;5091589;28;20231;-57
2022/10/05 02:31:16;;;;;;;9.57;6.27;;;12.30;99.90;;;;;;5091443;28;20281;-57
2022/10/05 02:33:43;;;;;;;7.97;5.60;;;12.30;99.90;;;;;;5092522;28;20211;-57
2022/10/05 02:36:15;;;;;;;8.53;5.63;;;12.40;99.90;;;;;;5094836;28;20350;-57
2022/10/05 02:38:54;;;;;;;9.33;6.33;;;12.40;99.90;;;;;;5094946;28;20713;-57
2022/10/05 02:41:32;;;;;;;14.53;6.67;;;12.30;99.90;;;;;;5094808;28;20200;-57
2022/10/05 02:44:06;;;;;;;11.60;6.30;;;12.30;99.90;;;;;;5095041;28;20677;-57
2022/10/05 02:46:40;;;;;;;8.97;5.93;;;12.30;99.90;;;;;;5095097;28;20230;-57
2022/10/05 02:49:18;;;;;;;9.30;6.07;;;12.30;99.90;;;;;;5095332;28;20234;-57
2022/10/05 02:51:50;;;;;;;13.63;6.63;;;12.30;99.90;;;;;;5095421;28;20218;-55
2022/10/05 02:54:29;;;;;;;12.63;6.83;;;12.30;99.90;;;;;;5095259;28;20678;-57
2022/10/05 02:57:00;;;;;;;14.37;6.63;;;12.30;99.90;;;;;;5094923;28;20202;-57
2022/10/05 02:59:34;;;;;;;10.20;7.07;;;12.30;99.90;;;;;;5094494;28;20229;-57
2022/10/05 03:02:12;;;;;;;12.00;6.67;;;12.30;99.90;;;;;;5095721;28;20207;-56
2022/10/05 03:04:45;;;;;;;8.17;5.87;;;12.30;99.90;;;;;;5095346;28;20210;-55
2022/10/05 03:07:15;;;;;;;9.63;6.40;;;12.30;99.90;;;;;;5094598;28;20673;-56
2022/10/05 03:09:47;;;;;;;10.17;6.43;;;12.30;99.90;;;;;;5094204;28;20235;-57
2022/10/05 03:12:34;;;;;;;14.80;6.97;;;12.30;99.90;;;;;;5094572;28;20210;-57
2022/10/05 03:15:12;;;;;;;12.97;6.97;;;12.20;99.90;;;;;;5094500;28;20217;-56
2022/10/05 03:17:49;;;;;;;9.73;6.97;;;12.20;99.90;;;;;;5093988;28;20268;-54
2022/10/05 03:20:29;;;;;;;9.40;6.70;;;12.20;99.90;;;;;;5094352;28;20235;-55
2022/10/05 03:22:59;;;;;;;14.23;7.30;;;12.30;99.90;;;;;;5094609;28;20206;-56
2022/10/05 03:26:01;;;;;;;11.30;6.87;;;12.30;99.90;;;;;;5094492;28;20236;-54
2022/10/05 03:28:35;;;;;;;11.63;6.97;;;12.30;99.90;;;;;;5093891;28;20223;-52
2022/10/05 03:31:05;;;;;;;8.50;5.77;;;12.30;99.90;;;;;;5094026;28;20288;-52
2022/10/05 03:33:42;;;;;;;8.60;6.87;;;12.30;99.90;;;;;;5094140;28;20205;-54
2022/10/05 03:36:17;;;;;;;12.90;6.43;;;12.30;99.90;;;;;;5093559;28;20297;-51
2022/10/05 03:38:49;;;;;;;12.00;7.03;;;12.30;99.90;;;;;;5093913;28;20636;-54
2022/10/05 03:41:24;;;;;;;10.80;6.47;;;12.30;99.90;;;;;;5093965;28;20298;-56
2022/10/05 03:44:16;;;;;;;10.57;6.60;;;12.30;99.90;;;;;;5094058;28;20266;-50
2022/10/05 03:46:55;;;;;;;10.03;6.90;;;12.30;99.90;;;;;;5093383;28;20214;-52
2022/10/05 03:49:33;;;;;;;10.60;7.10;;;12.30;99.90;;;;;;5093598;28;20282;-54
2022/10/05 03:52:05;;;;;;;12.00;7.50;;;12.30;99.90;;;;;;5093664;28;20207;-57
2022/10/05 03:54:37;;;;;;;10.50;6.47;;;12.40;99.90;;;;;;5093595;28;20672;-56
2022/10/05 03:57:13;;;;;;;11.20;6.93;;;12.30;99.90;;;;;;5093173;28;20633;-56
2022/10/05 03:59:50;;;;;;;12.00;6.70;;;12.30;99.90;;;;;;5093437;28;20209;-54
2022/10/05 04:02:22;;;;;;;14.27;6.97;;;12.30;99.90;;;;;;5093673;28;20258;-57
2022/10/05 04:04:55;;;;;;;10.43;6.83;;;12.30;99.90;;;;;;5093016;28;20621;-56
2022/10/05 04:07:31;;;;;;;8.90;6.30;;;12.30;99.90;;;;;;5092974;28;20209;-55
2022/10/05 04:10:00;;;;;;;11.63;6.70;;;12.30;99.90;;;;;;5093185;28;20216;-57
2022/10/05 04:12:32;;;;;;;13.37;6.50;;;12.30;99.90;;;;;;5093032;28;20233;-56
2022/10/05 04:15:03;;;;;;;8.33;6.40;;;12.30;99.90;;;;;;5093441;28;20214;-57
2022/10/05 04:17:35;;;;;;;12.47;6.87;;;12.20;99.90;;;;;;5092814;28;20249;-56
2022/10/05 04:20:07;;;;;;;10.47;6.20;;;12.20;99.90;;;;;;5093292;28;20820;-57
2022/10/05 04:22:39;;;;;;;10.43;6.57;;;12.30;99.90;;;;;;5092983;28;20209;-64
2022/10/05 04:25:14;;;;;;;8.87;6.43;;;12.30;99.90;;;;;;5093024;28;20210;-56
2022/10/05 04:27:46;;;;;;;10.40;6.13;;;12.30;99.90;;;;;;5092823;28;20231;-56
2022/10/05 04:30:16;;;;;;;12.73;7.13;;;12.30;99.90;;;;;;5092745;28;20222;-57
2022/10/05 04:32:44;;;;;;;7.97;6.03;;;12.30;99.90;;;;;;5092759;28;20572;-57
2022/10/05 04:35:32;;;;;;;10.27;6.07;;;12.30;99.90;;;;;;5092709;28;20564;-57
2022/10/05 04:38:10;;;;;;;10.27;6.43;;;12.30;99.90;;;;;;5092571;28;20230;-57
2022/10/05 04:40:47;;;;;;;11.60;6.17;;;12.30;99.90;;;;;;5092726;28;20226;-56
2022/10/05 04:43:19;;;;;;;13.30;6.60;;;12.30;99.90;;;;;;5092770;28;20210;-54
2022/10/05 04:46:00;;;;;;;11.60;6.70;;;12.30;99.90;;;;;;5092859;28;20295;-57
2022/10/05 04:48:45;;;;;;;10.53;6.60;;;12.30;99.90;;;;;;5092715;28;20231;-57
2022/10/05 04:51:23;;;;;;;8.77;6.03;;;12.30;99.90;;;;;;5090184;28;20570;-55
2022/10/05 04:53:56;;;;;;;10.23;7.03;;;12.30;99.90;;;;;;5090588;28;20199;-54
2022/10/05 04:56:31;;;;;;;12.30;6.80;;;12.30;99.90;;;;;;5091361;28;20208;-55
2022/10/05 04:59:27;;;;;;;9.07;6.37;;;12.40;99.90;;;;;;5092369;28;20224;-56
2022/10/05 05:02:05;;;;;;;11.73;6.83;;;12.40;99.90;;;;;;5091843;28;20207;-54
2022/10/05 05:05:04;;;;;;;10.77;7.17;;;12.50;99.90;;;;;;5092016;28;20226;-53
2022/10/05 05:07:40;;;;;;;9.40;6.27;;;12.50;99.90;;;;;;5091286;28;20749;-51
2022/10/05 05:10:43;;;;;;;9.67;6.50;;;12.50;99.90;;;;;;5091926;28;20263;-53
2022/10/05 05:13:25;;;;;;;11.00;7.07;;;12.50;99.90;;;;;;5091901;28;20264;-52
2022/10/05 05:15:57;;;;;;;10.60;6.47;;;12.50;99.90;;;;;;5092062;28;20632;-57
2022/10/05 05:18:57;;;;;;;10.07;7.03;;;12.50;99.90;;;;;;5091989;28;20271;-56
2022/10/05 05:21:36;;;;;;;11.43;6.90;;;12.40;99.90;;;;;;5047891;28;20646;-59
2022/10/05 05:24:12;;;;;;;10.30;6.93;;;12.50;99.90;;;;;;5091488;28;20220;-60
2022/10/05 05:26:54;;;;;;;8.13;6.13;;;12.40;99.90;;;;;;5092122;28;20734;-60
2022/10/05 05:29:27;;;;;;;11.27;7.60;;;12.50;99.90;;;;;;5091006;28;20235;-59
2022/10/05 05:32:06;;;;;;;12.13;6.47;;;12.50;99.90;;;;;;5091332;28;20224;-59
2022/10/05 05:34:45;;;;;;;10.10;7.00;;;12.50;99.90;;;;;;5091444;28;20204;-60
2022/10/05 05:37:23;;;;;;;13.37;6.37;;;12.50;99.90;;;;;;5091224;28;20213;-57
2022/10/05 05:40:00;;;;;;;8.70;6.37;;;12.60;99.90;;;;;;5090935;28;20718;-56
2022/10/05 05:42:35;;;;;;;8.83;6.23;;;12.60;99.90;;;;;;5091792;28;20214;-58
2022/10/05 05:45:15;;;;;;;9.37;6.27;;;12.60;99.90;;;;;;5091075;28;20743;-57
2022/10/05 05:47:50;;;;;;;8.40;5.53;;;12.60;99.90;;;;;;5091282;28;20314;-54
2022/10/05 05:50:40;;;;;;;9.77;6.53;;;12.60;99.90;;;;;;5091081;28;20259;-55
2022/10/05 05:53:14;;;;;;;9.13;6.37;;;12.60;99.90;;;;;;5091409;28;20256;-58
2022/10/05 05:55:47;;;;;;;11.30;6.03;;;12.70;99.90;;;;;;5091300;28;20217;-58
2022/10/05 05:58:20;;;;;;;9.40;5.73;;;12.70;99.90;;;;;;5091298;28;20228;-58
2022/10/05 06:00:51;;;;;;;8.50;5.77;;;12.80;99.90;;;;;;5091077;28;20706;-61
2022/10/05 06:03:22;;;;;;;9.17;5.67;;;12.80;99.90;;;;;;5090945;28;20799;-64
2022/10/05 06:05:52;;;;;;;9.97;5.90;;;12.80;99.90;;;;;;5089668;28;20673;-65
2022/10/05 06:08:26;;;;;;;11.10;5.97;;;12.90;99.90;;;;;;5091543;28;20235;-65
2022/10/05 06:10:59;;;;;;;7.30;5.50;;;12.90;99.90;;;;;;5095210;28;20289;-64
2022/10/05 06:13:32;;;;;;;7.30;5.30;;;13.00;99.90;;;;;;5094907;28;20265;-65
2022/10/05 06:16:08;;;;;;;8.87;5.33;;;13.00;99.90;;;;;;5095214;28;20206;-65
2022/10/05 06:18:37;;;;;;;8.73;5.37;;;13.10;99.90;;;;;;5094495;28;20241;-65
2022/10/05 06:21:10;;;;;;;8.53;5.57;;;13.10;99.90;;;;;;5094933;28;20204;-64
2022/10/05 06:23:42;;;;;;;8.10;5.37;;;13.10;99.90;;;;;;5094588;28;20215;-62
2022/10/05 06:26:20;;;;;;;6.17;5.10;;;13.20;99.90;;;;;;5086995;28;20261;-63
2022/10/05 06:28:51;;;;;;;6.60;4.67;;;13.20;99.90;;;;;;5092212;28;20310;-63
2022/10/05 06:31:29;;;;;;;8.43;4.97;;;13.20;99.90;;;;;;5093929;28;20224;-62
2022/10/05 06:34:08;;;;;;;8.37;5.00;;;13.30;99.90;;;;;;5093850;28;20212;-63
2022/10/05 06:36:40;;;;;;;7.90;5.47;;;13.40;99.90;;;;;;5094421;28;20615;-63
2022/10/05 06:39:43;;;;;;;8.80;5.03;;;13.50;99.90;;;;;;5093637;28;20220;-63
2022/10/05 06:42:31;;;;;;;7.30;5.07;;;13.50;99.90;;;;;;5082805;28;20564;-67
2022/10/05 06:45:05;;;;;;;11.10;5.23;;;13.60;99.90;;;;;;5092879;28;20269;-67
2022/10/05 06:47:43;;;;;;;5.77;4.53;;;13.60;99.90;;;;;;5093725;28;20229;-64
2022/10/05 06:50:21;;;;;;;7.73;4.87;;;13.60;99.90;;;;;;5093358;28;20670;-64
2022/10/05 06:53:03;;;;;;;6.97;4.90;;;13.70;99.90;;;;;;5094026;28;20203;-63
2022/10/05 06:55:37;;;;;;;8.83;4.27;;;13.80;99.90;;;;;;5093551;28;20212;-63
2022/10/05 06:58:26;;;;;;;5.97;4.23;;;13.80;99.90;;;;;;5093737;28;20220;-63
2022/10/05 07:00:58;;;;;;;7.70;4.40;;;13.80;99.90;;;;;;5093744;28;20250;-63
2022/10/05 07:03:32;;;;;;;8.07;3.97;;;13.90;99.90;;;;;;5093659;28;20204;-64
2022/10/05 07:06:06;;;;;;;7.77;4.33;;;14.00;99.90;;;;;;5093553;28;20670;-64
2022/10/05 07:08:58;;;;;;;5.27;3.83;;;14.00;99.90;;;;;;5093068;28;20778;-64
2022/10/05 07:11:41;;;;;;;5.73;4.17;;;14.10;99.90;;;;;;5093418;28;20224;-64
2022/10/05 07:14:24;;;;;;;5.20;3.80;;;14.20;99.90;;;;;;5093711;28;20208;-65
2022/10/05 07:17:08;;;;;;;6.87;4.20;;;14.20;99.90;;;;;;5093838;28;20600;-64
2022/10/05 07:19:40;;;;;;;6.57;3.80;;;14.20;99.90;;;;;;5092415;28;20238;-60
2022/10/05 07:22:32;;;;;;;6.10;3.90;;;14.20;99.90;;;;;;5093937;28;20208;-60
2022/10/05 07:25:07;;;;;;;7.50;4.07;;;14.30;99.90;;;;;;5084563;28;20211;-61
2022/10/05 07:27:37;;;;;;;6.33;4.20;;;14.30;99.90;;;;;;5093122;28;20231;-60
2022/10/05 07:30:09;;;;;;;6.73;3.57;;;14.20;99.90;;;;;;5092722;28;20262;-61
2022/10/05 07:32:44;;;;;;;6.20;4.20;;;14.30;99.90;;;;;;5093305;28;20569;-62
2022/10/05 07:38:04;;;;;;;8.00;4.47;;;14.30;99.90;;;;;;5092637;28;20670;-62
2022/10/05 07:40:36;;;;;;;6.47;3.90;;;14.30;99.90;;;;;;5092399;28;20583;-62
2022/10/05 07:43:16;;;;;;;4.77;3.57;;;14.40;99.90;;;;;;5093103;28;20663;-61
2022/10/05 07:45:50;;;;;;;7.30;4.03;;;14.40;99.90;;;;;;5092656;28;20904;-61
2022/10/05 07:48:20;;;;;;;5.60;3.40;;;14.40;99.90;;;;;;5092451;28;20230;-60
2022/10/05 07:50:58;;;;;;;5.47;3.87;;;14.30;99.90;;;;;;5092626;28;20581;-60
2022/10/05 07:53:31;;;;;;;9.77;3.97;;;14.40;99.90;;;;;;5093012;28;20207;-57
2022/10/05 07:56:03;;;;;;;6.30;4.10;;;14.30;99.90;;;;;;5093449;28;20277;-58
2022/10/05 07:58:36;;;;;;;7.87;3.80;;;14.40;99.90;;;;;;5092162;28;20314;-58
2022/10/05 08:01:10;;;;;;;6.13;4.03;;;14.40;99.90;;;;;;5092990;28;20257;-58
2022/10/05 08:03:51;;;;;;;4.93;4.00;;;14.40;99.90;;;;;;5092080;28;20299;-60
2022/10/05 08:06:48;;;;;;;6.60;3.83;;;14.40;99.90;;;;;;5092630;28;20208;-60
2022/10/05 08:09:25;;;;;;;6.03;4.23;;;14.50;99.90;;;;;;5091767;28;20262;-57
2022/10/05 08:12:00;;;;;;;5.77;3.50;;;14.50;99.90;;;;;;5092383;28;20219;-58
2022/10/05 08:14:36;;;;;;;8.13;3.30;;;14.50;99.90;;;;;;5092291;28;20211;-58
2022/10/05 08:17:13;;;;;;;5.20;3.27;;;14.60;99.90;;;;;;5092373;28;20203;-58
2022/10/05 08:19:46;;;;;;;4.93;3.70;;;14.70;99.90;;;;;;5091557;28;20661;-56
2022/10/05 08:22:20;;;;;;;7.43;3.70;;;14.70;99.90;;;;;;5092216;28;20208;-58
2022/10/05 08:24:55;;;;;;;4.50;3.40;;;14.70;99.90;;;;;;5091989;28;20277;-59
2022/10/05 08:27:28;;;;;;;5.97;3.70;;;14.70;99.90;;;;;;5092343;28;20653;-60
2022/10/05 08:30:00;;;;;;;4.73;3.67;;;14.80;99.90;;;;;;5091838;28;20208;-57
2022/10/05 08:32:31;;;;;;;4.13;3.27;;;14.90;99.90;;;;;;5091431;28;20231;-55
2022/10/05 08:35:04;;;;;;;6.70;3.20;;;14.90;99.90;;;;;;5093029;28;20211;-58
2022/10/05 08:37:34;;;;;;;5.60;3.20;;;14.90;99.90;;;;;;5092153;28;20228;-59
2022/10/05 08:40:29;;;;;;;5.50;3.80;;;15.00;99.90;;;;;;5092385;28;20197;-55
2022/10/05 08:43:07;;;;;;;4.83;3.20;;;14.90;99.90;;;;;;5091495;28;20807;-58
2022/10/05 08:46:07;;;;;;;6.10;3.30;;;14.90;99.90;;;;;;5092289;28;20567;-60
2022/10/05 08:49:05;;;;;;;4.87;3.50;;;15.00;99.90;;;;;;5091358;28;20235;-60
2022/10/05 08:52:20;;;;;;;5.43;3.00;;;15.10;99.90;;;;;;5091812;28;20246;-63
2022/10/05 08:55:27;;;;;;;5.80;3.50;;;15.20;99.90;;;;;;5085513;28;20216;-62
2022/10/05 08:58:19;;;;;;;4.93;3.50;;;15.10;99.90;;;;;;5090997;28;20276;-60
2022/10/05 09:00:55;;;;;;;8.63;3.00;;;15.10;99.90;;;;;;5091847;28;20212;-62
2022/10/05 09:03:56;;;;;;;5.40;3.40;;;15.20;99.90;;;;;;5091280;28;20204;-62
2022/10/05 09:06:53;;;;;;;4.60;2.70;;;15.20;99.90;;;;;;5075695;28;20208;-61
2022/10/05 09:09:47;;;;;;;5.07;3.00;;;15.30;99.90;;;;;;5090393;28;20231;-63
2022/10/05 09:12:37;;;;;;;5.57;3.13;;;15.30;99.90;;;;;;5091365;28;20220;-62
2022/10/05 09:15:19;;;;;;;5.37;2.80;;;15.40;99.90;;;;;;5091120;28;20208;-63
2022/10/05 09:18:29;;;;;;;4.63;3.27;;;15.40;99.90;;;;;;5091252;28;20234;-60
2022/10/05 09:21:02;;;;;;;5.27;2.97;;;15.40;99.90;;;;;;5056881;28;20200;-61
2022/10/05 09:23:39;;;;;;;3.57;3.03;;;15.50;99.90;;;;;;5091418;28;20235;-63
2022/10/05 09:26:11;;;;;;;4.83;2.80;;;15.60;99.90;;;;;;5090829;28;20261;-60
2022/10/05 09:28:54;;;;;;;3.80;2.90;;;15.60;99.90;;;;;;5091135;28;20232;-60
2022/10/05 09:31:40;;;;;;;6.17;2.93;;;15.50;99.90;;;;;;5090932;28;20616;-60
2022/10/05 09:34:37;;;;;;;5.07;3.10;;;15.60;99.90;;;;;;5091524;28;20212;-61
2022/10/05 09:37:28;;;;;;;4.83;3.20;;;15.60;99.90;;;;;;5090261;28;20205;-60
2022/10/05 09:40:36;;;;;;;5.73;2.90;;;15.70;99.90;;;;;;5090775;28;20200;-60
2022/10/05 09:43:25;;;;;;;5.30;2.93;;;15.70;99.90;;;;;;5092290;28;20204;-60
2022/10/05 09:46:21;;;;;;;3.77;2.73;;;15.70;99.90;;;;;;5095305;28;20667;-61
2022/10/05 09:49:32;;;;;;;5.93;3.10;;;15.80;99.90;;;;;;5094844;28;20227;-62
2022/10/05 09:52:25;;;;;;;5.13;3.10;;;15.90;99.90;;;;;;5065471;28;20236;-61
2022/10/05 09:55:29;;;;;;;5.60;2.97;;;15.90;99.90;;;;;;5063797;28;20212;-59
2022/10/05 09:58:32;;;;;;;3.67;2.83;;;15.90;99.90;;;;;;5094906;28;20329;-59
2022/10/05 10:01:19;;;;;;;5.20;3.50;;;16.00;99.90;;;;;;5094778;28;20253;-62
2022/10/05 10:04:11;;;;;;;4.50;3.13;;;16.10;98.80;;;;;;5095029;28;20208;-59
2022/10/05 10:07:03;;;;;;;4.93;2.77;;;16.10;98.70;;;;;;5094662;28;20196;-59
2022/10/05 10:09:36;;;;;;;3.80;2.87;;;16.10;99.90;;;;;;5094583;28;20228;-59
2022/10/05 10:12:30;;;;;;;4.13;3.30;;;16.00;99.90;;;;;;5094534;28;20576;-58
2022/10/05 10:15:32;;;;;;;3.33;2.90;;;15.90;99.90;;;;;;5081219;28;20200;-61
2022/10/05 10:18:32;;;;;;;4.60;2.70;;;16.00;99.90;;;;;;5074110;28;20232;-61
2022/10/05 10:21:10;;;;;;;3.27;2.40;;;16.00;99.90;;;;;;5074058;28;20205;-59
2022/10/05 10:23:57;;;;;;;4.70;3.20;;;16.00;99.90;;;;;;5094097;28;20196;-60
2022/10/05 10:26:47;;;;;;;4.97;3.23;;;16.00;99.90;;;;;;5094473;28;20216;-63
2022/10/05 10:29:46;;;;;;;4.93;2.63;;;16.00;99.90;;;;;;5093596;28;20234;-58
2022/10/05 10:32:33;;;;;;;3.47;2.60;;;16.10;99.90;;;;;;5094368;28;20224;-65
2022/10/05 10:35:18;;;;;;;3.50;2.73;;;16.00;97.80;;;;;;5094479;28;20602;-61
2022/10/05 10:38:35;;;;;;;3.63;2.43;;;16.10;99.90;;;;;;5093859;28;20232;-60
2022/10/05 10:41:28;;;;;;;10.27;2.97;;;16.20;97.00;;;;;;5012152;28;20926;-60
2022/10/05 10:44:21;;;;;;;5.33;2.40;;;16.20;97.70;;;;;;5000598;28;20207;-59
2022/10/05 10:47:04;;;;;;;2.70;2.30;;;16.40;95.30;;;;;;5084616;28;20593;-59
2022/10/05 10:49:44;;;;;;;3.37;2.30;;;16.40;95.90;;;;;;5092978;28;20230;-58
2022/10/05 10:52:24;;;;;;;4.20;2.50;;;16.50;95.40;;;;;;5093848;28;20223;-62
2022/10/05 10:55:24;;;;;;;4.27;2.77;;;16.40;90.60;;;;;;5093171;28;20208;-59
2022/10/05 10:58:12;;;;;;;2.60;2.37;;;16.40;86.20;;;;;;5093663;28;20224;-59
2022/10/05 11:00:47;;;;;;;4.20;2.60;;;16.40;91.80;;;;;;5093171;28;20667;-58
2022/10/05 11:03:49;;;;;;;3.23;2.50;;;16.30;82.30;;;;;;5093705;28;20936;-60
2022/10/05 11:06:48;;;;;;;3.27;2.30;;;16.40;90.90;;;;;;5093209;28;20265;-61
2022/10/05 11:09:43;;;;;;;3.70;2.43;;;16.60;85.60;;;;;;5093446;28;20224;-58
2022/10/05 11:12:52;;;;;;;2.60;2.33;;;16.70;87.80;;;;;;5093457;28;20216;-60
2022/10/05 11:16:00;;;;;;;4.40;2.07;;;16.60;87.10;;;;;;5064788;28;20204;-61
2022/10/05 11:18:52;;;;;;;2.93;2.23;;;16.70;87.60;;;;;;5093344;28;20247;-59
2022/10/05 11:21:35;;;;;;;5.80;2.07;;;16.90;84.30;;;;;;5093336;28;20204;-59
2022/10/05 11:24:37;;;;;;;2.93;2.17;;;16.90;69.20;;;;;;5093323;28;20212;-58
2022/10/05 11:27:28;;;;;;;4.60;2.33;;;16.90;71.00;;;;;;5093312;28;20288;-56
2022/10/05 11:30:13;;;;;;;4.60;2.20;;;17.00;79.50;;;;;;5092694;28;20208;-61
2022/10/05 11:33:20;;;;;;;3.10;1.90;;;17.20;76.20;;;;;;5093534;28;20224;-60
2022/10/05 11:36:11;;;;;;;2.40;1.70;;;17.70;89.30;;;;;;5092857;28;20204;-60
2022/10/05 11:39:11;;;;;;;2.87;2.30;;;17.90;37.20;;;;;;5092962;28;20224;-60
2022/10/05 11:41:57;;;;;;;2.63;1.90;;;18.00;6.60;;;;;;5093223;28;20823;-59
2022/10/05 11:45:13;;;;;;;2.87;2.33;;;18.00;1.00;;;;;;5092829;28;20208;-62
2022/10/05 11:47:57;;;;;;;3.70;2.30;;;18.00;1.00;;;;;;5011175;28;20254;-59
2022/10/05 11:50:32;;;;;;;5.23;2.70;;;18.00;99.90;;;;;;5009546;28;20199;-55
2022/10/05 11:53:06;;;;;;;4.27;2.50;;;18.10;99.90;;;;;;5055652;28;20718;-56
2022/10/05 11:55:41;;;;;;;4.10;2.20;;;17.90;1.00;;;;;;5072654;28;20205;-51
2022/10/05 11:58:19;;;;;;;2.60;2.40;;;17.90;1.00;;;;;;5071801;28;20224;-61
2022/10/05 12:00:53;;;;;;;4.20;2.23;;;18.00;99.90;;;;;;5094238;28;20242;-62
2022/10/05 12:03:34;;;;;;;3.10;2.00;;;18.00;99.90;;;;;;5093112;28;20913;-60
2022/10/05 12:06:25;;;;;;;5.60;2.10;;;18.20;99.90;;;;;;5091485;28;20208;-61
2022/10/05 12:09:05;;;;;;;7.47;2.27;;;18.20;99.90;;;;;;5092084;28;20224;-64
2022/10/05 12:11:43;;;;;;;3.77;2.10;;;18.20;10.50;;;;;;5092367;28;20204;-62
2022/10/05 12:14:20;;;;;;;3.33;2.33;;;18.20;99.90;;;;;;5092133;28;20228;-62
2022/10/05 12:16:52;;;;;;;3.90;2.33;;;18.30;9.20;;;;;;5092299;28;20295;-63
2022/10/05 12:19:28;;;;;;;3.40;2.10;;;18.40;1.00;;;;;;5092107;28;20232;-50
2022/10/05 12:22:02;;;;;;;6.07;2.37;;;18.40;1.00;;;;;;5092061;28;20290;-55
2022/10/05 12:25:00;;;;;;;4.43;2.33;;;18.50;99.90;;;;;;5092176;28;20216;-59
2022/10/05 12:27:32;;;;;;;3.43;2.10;;;18.40;99.90;;;;;;5091694;28;20208;-63
2022/10/05 12:30:06;;;;;;;4.23;2.00;;;18.50;1.00;;;;;;5090354;28;20613;-62
2022/10/05 12:32:38;;;;;;;4.20;2.20;;;18.70;99.90;;;;;;5092609;28;20319;-58
2022/10/05 12:35:13;;;;;;;3.47;2.03;;;18.80;1.00;;;;;;5091720;28;20722;-65
2022/10/05 12:37:46;;;;;;;4.03;1.97;;;18.80;99.90;;;;;;5091541;28;20268;-64
2022/10/05 12:40:26;;;;;;;2.80;2.03;;;18.80;70.10;;;;;;5091701;28;20250;-62
2022/10/05 12:43:04;;;;;;;3.67;1.90;;;18.70;99.90;;;;;;5092178;28;20191;-62
2022/10/05 12:45:56;;;;;;;2.70;2.00;;;18.90;1.00;;;;;;5092407;28;20203;-61
2022/10/05 12:48:48;;;;;;;3.83;1.70;;;18.90;99.90;;;;;;5091722;28;20288;-60
2022/10/05 12:51:21;;;;;;;3.13;1.83;;;19.00;99.90;;;;;;5091530;28;20239;-62
2022/10/05 12:53:54;;;;;;;2.53;2.00;;;19.10;99.90;;;;;;5091832;28;20251;-62
2022/10/05 12:56:32;;;;;;;2.43;1.80;;;19.20;1.00;;;;;;5091721;28;20568;-61
2022/10/05 12:59:09;;;;;;;4.90;2.00;;;19.30;99.90;;;;;;5090941;28;20223;-60
2022/10/05 13:01:41;;;;;;;4.60;2.37;;;19.40;99.90;;;;;;5091862;28;21062;-62
2022/10/05 13:04:21;;;;;;;4.33;1.80;;;19.50;99.90;;;;;;5091894;28;20204;-62
2022/10/05 13:07:13;;;;;;;1.90;1.60;;;19.60;1.00;;;;;;5092083;28;20253;-60
2022/10/05 13:09:50;;;;;;;3.40;2.00;;;19.70;99.90;;;;;;5091453;28;20211;-61
2022/10/05 13:12:27;;;;;;;4.27;1.80;;;19.80;14.30;;;;;;5092053;28;20670;-62
2022/10/05 13:15:04;;;;;;;5.10;2.00;;;19.70;1.00;;;;;;5091762;28;20211;-61
2022/10/05 13:17:38;;;;;;;2.73;1.70;;;19.60;99.90;;;;;;5091515;28;20778;-61
2022/10/05 13:20:14;;;;;;;2.30;1.67;;;19.80;99.90;;;;;;5090754;28;20208;-61
2022/10/05 13:22:46;;;;;;;2.83;1.50;;;19.90;99.90;;;;;;5091620;28;20200;-61
2022/10/05 13:25:26;;;;;;;2.00;1.60;;;20.00;22.60;;;;;;5090747;28;20688;-60
2022/10/05 13:28:08;;;;;;;1.90;1.10;;;20.00;1.00;;;;;;5091156;28;20611;-62
2022/10/05 13:30:39;;;;;;;2.07;1.40;;;20.00;1.00;;;;;;5090361;28;20625;-61
2022/10/05 13:33:14;;;;;;;2.30;1.53;;;19.90;99.90;;;;;;5090918;28;20702;-61
2022/10/05 13:35:45;;;;;;;1.83;1.50;;;20.00;99.90;;;;;;5091177;28;20211;-61
2022/10/05 13:38:25;;;;;;;1.80;1.60;;;20.00;99.90;;;;;;5090841;28;20235;-60
2022/10/05 13:40:59;;;;;;;3.00;1.47;;;20.00;99.90;;;;;;5090723;28;20623;-61
2022/10/05 13:43:37;;;;;;;1.70;1.30;;;19.90;99.90;;;;;;5090576;28;20690;-61
2022/10/05 13:46:11;;;;;;;2.23;1.30;;;19.90;99.90;;;;;;5091178;28;20204;-61
2022/10/05 13:48:49;;;;;;;2.67;1.37;;;19.90;99.90;;;;;;5090500;28;20228;-60
2022/10/05 13:51:19;;;;;;;2.60;1.23;;;20.10;99.90;;;;;;5090158;28;20215;-61